Mayesville, SC (29104)

8:08 PM EST en Diciembre 20, 2014 (GMT -0500)
Sumter Municipal | Change Station
CLOSE
Current Station
Aeropuerto
Location: Sumter,
Altura: 184 ft
Estaciones meteorológicas cercanas

Alt 184 ft 34.00 °N, 80.36 °W | Updated 13 minutes ago

Nublado
Nublado
45 ° F
Sensación térmica 42 ° F
N
5
Viento Variable Viento desde NE

Hoy
Alta -- | Baja -- ° F
--% Posibilidad de precipitaciones
Ayer
Alta -- | Baja -- ° F
Precip. -- pul
7:21 AM 5:15 PM
Creciente menguante, 1% visible
Presión 30.25 pul
Visibilidad 10.0 Millas
Nubes Nublado 2400 ft
Vientos helados 42 ° F
Punto de rocío 41 ° F
Humedad 87%
Precipitaciones 0.00 pul
Espesor de la nieve No disponible.
UV 0 de una escala de 12
Polen 1.00 de una escala de 12
Calidad del aire No disponible.
Flu Activity No disponible.
METAR KSMS 210055Z AUTO 05004KT 10SM OVC024 07/05 A3025 RMK AO2

More Conditions Fewer Conditions

Presión 30.25 pul
Visibilidad 10.0 Millas
Nubes Nublado 2400 ft
Vientos helados 42 ° F
Punto de rocío 41 ° F
Humedad 87%
Precipitaciones 0.00 pul
Espesor de la nieve No disponible.
UV 0 de una escala de 12
Polen 1.00 de una escala de 12
Calidad del aire No disponible.
Flu Activity No disponible.
METAR KSMS 210055Z AUTO 05004KT 10SM OVC024 07/05 A3025 RMK AO2

More Conditions Fewer Conditions

10-Day Weather Forecast

Almanac

Astronomía

Dec. 20, 2014 Salida Puesta
Hora real
Crepúsculo civil
Crepúsculo náutico
Crepúsculo astronómico
Luna
Horas de luz
Horas de luz
Tomorrow will be .
, % of the Moon is Illuminated

Extremos de hoy

Máximos del estado Bajos del estado

Community

WunderPhotos

Upload Photos

1,779,331 ¡fotos cargadas!

WunderBlogs® & News

Nearby

Calidad del aire

  Calidad del aire Índice AQ Contaminante
Not available.

Grosos de nieve

Estación Profundido Altura

Actividad de terremotos

Ciudad Distance Mag. Tiempo y dato
Magnitud mínima muestra es 2,5.

Temperaturas de aguas costeras

Lugar Temperatura

Estaciones meteorológicas cercanas